createdAt,value
2022-11-18T00:00:15.161Z,98755.47
2022-11-18T00:01:20.525Z,98757.13
2022-11-18T00:02:22.723Z,98754.41
2022-11-18T00:03:25.102Z,98753.59
2022-11-18T00:04:27.339Z,98754.41
2022-11-18T00:05:29.520Z,98750.56
2022-11-18T00:06:31.746Z,98750.00
2022-11-18T00:07:34.043Z,98748.09
2022-11-18T00:08:36.332Z,98756.31
2022-11-18T00:09:38.570Z,98758.22
2022-11-18T00:10:40.779Z,98755.22
2022-11-18T00:12:02.006Z,98757.94
2022-11-18T00:13:22.960Z,98755.22
2022-11-18T00:14:27.635Z,98756.06
2022-11-18T00:15:31.805Z,98751.38
2022-11-18T00:16:34.157Z,98748.91
2022-11-18T00:17:36.375Z,98753.81
2022-11-18T00:18:39.406Z,98756.56
2022-11-18T00:19:41.647Z,98755.47
2022-11-18T00:20:43.817Z,98751.94
2022-11-18T00:21:46.043Z,98753.00
2022-11-18T00:22:48.206Z,98750.00
2022-11-18T00:23:50.428Z,98751.66
2022-11-18T00:24:52.625Z,98742.88
2022-11-18T00:25:54.883Z,98750.00
2022-11-18T00:26:57.320Z,98749.19
2022-11-18T00:27:59.678Z,98750.00
2022-11-18T00:29:02.042Z,98752.75
2022-11-18T00:30:04.537Z,98750.84
2022-11-18T00:31:10.072Z,98750.00
2022-11-18T00:32:12.282Z,98750.00
2022-11-18T00:33:14.435Z,98747.00
2022-11-18T00:34:18.832Z,98749.72
2022-11-18T00:35:21.008Z,98746.19
2022-11-18T00:36:23.241Z,98752.47
2022-11-18T00:37:26.273Z,98748.91
2022-11-18T00:38:30.273Z,98759.88
2022-11-18T00:39:32.443Z,98761.53
2022-11-18T00:40:34.634Z,98756.06
2022-11-18T00:41:55.383Z,98757.94
2022-11-18T00:42:57.581Z,98766.16
2022-11-18T00:44:00.507Z,98755.47
2022-11-18T00:45:02.839Z,98760.97
2022-11-18T00:46:07.122Z,98760.69
2022-11-18T00:47:09.338Z,98764.25
2022-11-18T00:48:11.642Z,98767.53
2022-11-18T00:49:14.170Z,98765.91
2022-11-18T00:50:19.105Z,98768.66
2022-11-18T00:51:21.295Z,98765.91
2022-11-18T00:52:23.501Z,98767.53
2022-11-18T00:53:27.113Z,98768.66
2022-11-18T00:54:29.371Z,98767.81
2022-11-18T00:55:31.897Z,98764.81
2022-11-18T00:56:34.285Z,98761.25
2022-11-18T00:57:36.542Z,98768.38
2022-11-18T00:58:38.985Z,98773.88
2022-11-18T00:59:41.217Z,98766.47
2022-11-18T01:00:45.314Z,98771.94
2022-11-18T01:01:49.039Z,98770.03
2022-11-18T01:02:51.503Z,98763.72
2022-11-18T01:03:53.747Z,98764.81
2022-11-18T01:04:55.936Z,98768.13
2022-11-18T01:05:58.168Z,98766.47
2022-11-18T01:07:00.544Z,98768.13
2022-11-18T01:08:02.812Z,98768.13
2022-11-18T01:09:05.056Z,98770.03
2022-11-18T01:10:07.511Z,98765.38
2022-11-18T01:11:28.516Z,98773.28
2022-11-18T01:12:54.093Z,98773.03
2022-11-18T01:13:56.731Z,98769.47
2022-11-18T01:14:59.481Z,98773.03
2022-11-18T01:16:01.660Z,98770.28
2022-11-18T01:17:04.321Z,98761.25
2022-11-18T01:18:06.647Z,98767.53
2022-11-18T01:19:08.826Z,98766.72
2022-11-18T01:20:11.615Z,98766.47
2022-11-18T01:21:13.991Z,98766.47
2022-11-18T01:22:16.379Z,98768.38
2022-11-18T01:23:22.674Z,98766.47
2022-11-18T01:24:24.891Z,98769.19
2022-11-18T01:25:29.002Z,98758.25
2022-11-18T01:26:31.176Z,98767.53
2022-11-18T01:27:34.084Z,98764.81
2022-11-18T01:28:36.849Z,98762.34
2022-11-18T01:29:39.082Z,98765.09
2022-11-18T01:30:41.853Z,98757.72
2022-11-18T01:32:08.774Z,98759.59
2022-11-18T01:33:06.889Z,98763.19
2022-11-18T01:34:09.095Z,98757.72
2022-11-18T01:35:11.918Z,98761.25
2022-11-18T01:36:20.468Z,98761.25
2022-11-18T01:37:23.026Z,98754.13
2022-11-18T01:38:25.488Z,98764.00
2022-11-18T01:39:27.758Z,98754.13
2022-11-18T01:40:30.428Z,98751.66
2022-11-18T01:41:33.062Z,98752.47
2022-11-18T01:42:36.013Z,98756.06
2022-11-18T01:43:54.644Z,98754.41
2022-11-18T01:45:01.047Z,98755.22
2022-11-18T01:46:05.738Z,98758.78
2022-11-18T01:47:08.100Z,98758.22
2022-11-18T01:48:20.729Z,98758.22
2022-11-18T01:49:25.272Z,98757.41
2022-11-18T01:50:28.606Z,98751.94
2022-11-18T01:51:36.750Z,98765.63
2022-11-18T01:52:41.176Z,98759.31
2022-11-18T01:53:50.127Z,98759.31
2022-11-18T01:54:57.761Z,98754.09
2022-11-18T01:56:07.844Z,98759.31
2022-11-18T01:57:17.324Z,98756.03
2022-11-18T01:58:42.679Z,98754.94
2022-11-18T01:59:49.509Z,98759.56
2022-11-18T02:00:52.008Z,98768.63
2022-11-18T02:02:00.093Z,98754.94
2022-11-18T02:03:03.116Z,98747.81
2022-11-18T02:04:07.399Z,98760.69
2022-11-18T02:05:14.398Z,98760.69
2022-11-18T02:06:17.419Z,98758.19
2022-11-18T02:07:21.527Z,98759.84
2022-11-18T02:08:24.011Z,98757.09
2022-11-18T02:09:26.340Z,98752.72
2022-11-18T02:10:28.815Z,98754.63
2022-11-18T02:11:50.628Z,98753.81
2022-11-18T02:12:53.858Z,98758.19
2022-11-18T02:13:56.937Z,98760.94
2022-11-18T02:15:00.309Z,98759.31
2022-11-18T02:16:15.916Z,98755.44
2022-11-18T02:17:48.810Z,98751.91
2022-11-18T02:19:04.365Z,98749.16
2022-11-18T02:20:09.431Z,98749.44
2022-11-18T02:21:23.169Z,98750.25
2022-11-18T02:23:00.623Z,98752.97
2022-11-18T02:24:23.811Z,98745.63
2022-11-18T02:26:07.845Z,98754.06
2022-11-18T02:27:22.221Z,98746.13
2022-11-18T02:28:48.780Z,98747.78
2022-11-18T02:30:13.677Z,98746.97
2022-11-18T02:31:55.680Z,98744.47
2022-11-18T02:33:07.407Z,98744.75
2022-11-18T02:34:42.978Z,98753.81
2022-11-18T02:35:56.679Z,98744.75
2022-11-18T02:37:07.977Z,98744.75
2022-11-18T02:38:28.535Z,98735.72
2022-11-18T02:39:36.722Z,98751.06
2022-11-18T02:40:46.695Z,98742.00
2022-11-18T02:41:53.451Z,98743.66
2022-11-18T02:43:01.044Z,98740.09
2022-11-18T02:44:13.405Z,98743.94
2022-11-18T02:45:18.456Z,98742.00
2022-11-18T02:46:28.698Z,98749.13
2022-11-18T02:47:33.431Z,98741.19
2022-11-18T02:48:40.234Z,98743.94
2022-11-18T02:49:47.387Z,98743.94
2022-11-18T02:50:50.548Z,98745.81
2022-11-18T02:51:55.547Z,98752.16
2022-11-18T02:53:01.434Z,98752.16
2022-11-18T02:54:09.345Z,98744.19
2022-11-18T02:55:14.903Z,98747.75
2022-11-18T02:56:20.374Z,98743.94
2022-11-18T02:57:25.488Z,98746.94
2022-11-18T02:58:27.850Z,98747.47
2022-11-18T02:59:30.162Z,98741.19
2022-11-18T03:00:33.463Z,98741.19
2022-11-18T03:01:36.640Z,98742.28
2022-11-18T03:02:47.673Z,98748.31
2022-11-18T03:03:50.789Z,98746.66
2022-11-18T03:05:00.476Z,98746.41
2022-11-18T03:06:13.834Z,98749.13
2022-11-18T03:07:23.624Z,98745.31
2022-11-18T03:08:32.227Z,98746.41
2022-11-18T03:09:38.817Z,98748.06
2022-11-18T03:10:52.847Z,98745.31
2022-11-18T03:12:07.727Z,98749.94
2022-11-18T03:13:39.592Z,98746.13
2022-11-18T03:14:56.269Z,98752.44
2022-11-18T03:16:07.045Z,98750.53
2022-11-18T03:17:34.012Z,98751.59
2022-11-18T03:18:52.564Z,98746.13
2022-11-18T03:20:04.799Z,98747.22
2022-11-18T03:21:14.004Z,98747.22
2022-11-18T03:22:48.409Z,98748.88
2022-11-18T03:23:59.564Z,98749.94
2022-11-18T03:25:11.796Z,98748.88
2022-11-18T03:26:21.156Z,98752.69
2022-11-18T03:27:34.399Z,98745.31
2022-11-18T03:28:44.304Z,98744.47
2022-11-18T03:29:54.436Z,98748.31
2022-11-18T03:31:24.306Z,98751.59
2022-11-18T03:32:30.009Z,98749.72
2022-11-18T03:33:42.321Z,98752.44
2022-11-18T03:34:49.767Z,98757.06
2022-11-18T03:35:55.502Z,98755.19
2022-11-18T03:37:07.602Z,98761.47
2022-11-18T03:38:17.538Z,98749.72
2022-11-18T03:39:23.103Z,98758.72
2022-11-18T03:40:31.046Z,98757.66
2022-11-18T03:41:39.550Z,98760.38
2022-11-18T03:42:46.545Z,98758.47
2022-11-18T03:43:56.973Z,98762.84
2022-11-18T03:45:22.323Z,98760.13
2022-11-18T03:46:35.775Z,98764.50
2022-11-18T03:47:42.656Z,98762.84
2022-11-18T03:48:50.042Z,98761.78
2022-11-18T03:50:21.239Z,98765.59
2022-11-18T03:51:33.936Z,98772.72
2022-11-18T03:52:37.324Z,98767.25
2022-11-18T03:53:48.111Z,98764.50
2022-11-18T03:54:53.179Z,98765.31
2022-11-18T03:56:02.170Z,98780.94
2022-11-18T03:57:12.572Z,98770.00
2022-11-18T03:58:28.008Z,98780.09
2022-11-18T03:59:57.954Z,98766.69
2022-11-18T04:01:09.307Z,98771.63
2022-11-18T04:02:15.703Z,98779.00
2022-11-18T04:03:18.138Z,98771.84
2022-11-18T04:04:21.213Z,98787.47
2022-11-18T04:05:23.645Z,98777.59
2022-11-18T04:06:40.057Z,98785.28
2022-11-18T04:07:54.994Z,98780.03
2022-11-18T04:09:03.210Z,98782.78
2022-11-18T04:10:29.619Z,98781.16
2022-11-18T04:11:58.085Z,98790.72
2022-11-18T04:13:09.050Z,98780.59
2022-11-18T04:14:14.075Z,98778.94
2022-11-18T04:15:16.685Z,98778.13
2022-11-18T04:16:18.894Z,98781.13
2022-11-18T04:17:23.883Z,98782.47
2022-11-18T04:18:26.139Z,98782.75
2022-11-18T04:19:28.477Z,98787.38
2022-11-18T04:20:32.037Z,98795.03
2022-11-18T04:21:34.288Z,98789.78
2022-11-18T04:22:36.862Z,98782.09
2022-11-18T04:23:39.042Z,98791.97
2022-11-18T04:24:41.718Z,98795.22
2022-11-18T04:25:44.050Z,98790.00
2022-11-18T04:26:46.270Z,98791.94
2022-11-18T04:27:48.462Z,98781.50
2022-11-18T04:28:51.873Z,98790.28
2022-11-18T04:29:54.073Z,98787.81
2022-11-18T04:30:56.293Z,98786.41
2022-11-18T04:31:59.694Z,98790.25
2022-11-18T04:33:02.524Z,98791.31
2022-11-18T04:34:04.711Z,98789.66
2022-11-18T04:35:07.074Z,98791.84
2022-11-18T04:36:09.657Z,98794.03
2022-11-18T04:37:11.909Z,98791.56
2022-11-18T04:38:17.825Z,98799.75
2022-11-18T04:39:25.285Z,98791.25
2022-11-18T04:40:27.498Z,98796.72
2022-11-18T04:41:48.419Z,98793.44
2022-11-18T04:42:50.683Z,98801.91
2022-11-18T04:43:52.904Z,98799.41
2022-11-18T04:44:55.235Z,98798.88
2022-11-18T04:45:57.535Z,98799.13
2022-11-18T04:47:04.855Z,98799.38
2022-11-18T04:48:07.108Z,98809.22
2022-11-18T04:49:11.400Z,98804.84
2022-11-18T04:50:13.649Z,98808.69
2022-11-18T04:51:15.962Z,98804.28
2022-11-18T04:52:18.226Z,98808.09
2022-11-18T04:53:20.435Z,98805.63
2022-11-18T04:54:23.890Z,98810.28
2022-11-18T04:55:27.409Z,98806.97
2022-11-18T04:56:30.030Z,98808.06
2022-11-18T04:57:32.296Z,98806.16
2022-11-18T04:58:34.546Z,98806.41
2022-11-18T04:59:36.902Z,98808.34
2022-11-18T05:00:39.186Z,98807.50
2022-11-18T05:01:41.594Z,98805.84
2022-11-18T05:02:46.454Z,98805.00
2022-11-18T05:03:50.714Z,98810.75
2022-11-18T05:04:53.429Z,98803.38
2022-11-18T05:05:55.689Z,98799.25
2022-11-18T05:06:59.413Z,98806.88
2022-11-18T05:08:01.670Z,98807.97
2022-11-18T05:09:04.034Z,98810.69
2022-11-18T05:10:06.574Z,98807.16
2022-11-18T05:11:27.637Z,98809.91
2022-11-18T05:12:48.260Z,98810.16
2022-11-18T05:13:51.265Z,98807.66
2022-11-18T05:14:53.524Z,98815.06
2022-11-18T05:15:55.753Z,98812.56
2022-11-18T05:17:00.592Z,98819.94
2022-11-18T05:18:02.984Z,98819.38
2022-11-18T05:19:06.273Z,98816.91
2022-11-18T05:20:09.510Z,98821.53
2022-11-18T05:21:12.323Z,98821.00
2022-11-18T05:22:15.697Z,98817.41
2022-11-18T05:23:17.924Z,98826.97
2022-11-18T05:24:20.219Z,98822.59
2022-11-18T05:25:22.445Z,98830.22
2022-11-18T05:26:24.666Z,98826.69
2022-11-18T05:27:26.893Z,98830.75
2022-11-18T05:28:30.631Z,98826.38
2022-11-18T05:29:34.063Z,98829.09
2022-11-18T05:30:36.255Z,98833.97
2022-11-18T05:31:38.794Z,98835.06
2022-11-18T05:32:40.968Z,98829.84
2022-11-18T05:33:44.070Z,98830.69
2022-11-18T05:34:46.360Z,98830.13
2022-11-18T05:35:52.468Z,98830.94
2022-11-18T05:36:57.355Z,98837.75
2022-11-18T05:38:01.434Z,98836.94
2022-11-18T05:39:04.847Z,98839.09
2022-11-18T05:40:07.826Z,98834.44
2022-11-18T05:41:10.754Z,98835.53
2022-11-18T05:42:31.551Z,98834.72
2022-11-18T05:43:34.822Z,98840.44
2022-11-18T05:44:37.052Z,98842.34
2022-11-18T05:45:40.213Z,98841.78
2022-11-18T05:46:42.473Z,98848.59
2022-11-18T05:48:01.303Z,98846.66
2022-11-18T05:49:03.611Z,98851.56
2022-11-18T05:50:06.501Z,98851.81
2022-11-18T05:51:08.816Z,98852.06
2022-11-18T05:52:11.133Z,98848.53
2022-11-18T05:53:13.787Z,98855.63
2022-11-18T05:54:19.091Z,98856.97
2022-11-18T05:55:25.865Z,98858.06
2022-11-18T05:56:30.292Z,98861.03
2022-11-18T05:57:32.725Z,98862.13
2022-11-18T05:58:34.910Z,98865.94
2022-11-18T05:59:37.153Z,98868.94
2022-11-18T06:00:39.884Z,98866.19
2022-11-18T06:01:48.146Z,98881.75
2022-11-18T06:02:54.264Z,98881.75
2022-11-18T06:03:57.514Z,98877.38
2022-11-18T06:05:03.257Z,98881.19
2022-11-18T06:06:10.125Z,98886.09
2022-11-18T06:07:23.263Z,98888.56
2022-11-18T06:08:31.580Z,98886.09
2022-11-18T06:09:39.167Z,98892.63
2022-11-18T06:10:43.349Z,98890.16
2022-11-18T06:11:50.561Z,98893.13
2022-11-18T06:12:56.977Z,98898.88
2022-11-18T06:14:12.011Z,98899.69
2022-11-18T06:15:24.213Z,98906.22
2022-11-18T06:16:29.171Z,98911.94
2022-11-18T06:17:36.368Z,98899.34
2022-11-18T06:18:39.224Z,98915.75
2022-11-18T06:19:41.851Z,98906.72
2022-11-18T06:20:44.786Z,98905.91
2022-11-18T06:21:47.707Z,98912.47
2022-11-18T06:22:53.805Z,98904.75
2022-11-18T06:23:56.601Z,98913.78
2022-11-18T06:25:00.665Z,98911.53
2022-11-18T06:26:03.666Z,98917.00
2022-11-18T06:27:06.238Z,98915.59
2022-11-18T06:28:10.960Z,98907.41
2022-11-18T06:29:19.477Z,98912.88
2022-11-18T06:30:23.917Z,98914.78
2022-11-18T06:31:26.127Z,98911.25
2022-11-18T06:32:28.332Z,98914.22
2022-11-18T06:33:30.621Z,98912.56
2022-11-18T06:34:36.729Z,98919.69
2022-11-18T06:35:43.170Z,98918.03
2022-11-18T06:36:45.476Z,98921.84
2022-11-18T06:37:47.867Z,98924.56
2022-11-18T06:38:51.514Z,98918.28
2022-11-18T06:39:53.798Z,98922.91
2022-11-18T06:41:01.102Z,98929.44
2022-11-18T06:42:03.458Z,98929.44
2022-11-18T06:43:28.561Z,98922.34
2022-11-18T06:44:30.804Z,98936.00
2022-11-18T06:45:33.590Z,98925.31
2022-11-18T06:46:54.166Z,98927.22
2022-11-18T06:48:04.314Z,98933.75
2022-11-18T06:49:06.582Z,98931.28
2022-11-18T06:50:09.345Z,98930.47
2022-11-18T06:51:11.821Z,98934.03
2022-11-18T06:52:14.248Z,98940.56
2022-11-18T06:53:16.401Z,98938.91
2022-11-18T06:54:19.526Z,98942.72
2022-11-18T06:55:21.787Z,98945.69
2022-11-18T06:56:25.001Z,98952.25
2022-11-18T06:57:27.307Z,98941.53
2022-11-18T06:58:29.488Z,98948.09
2022-11-18T06:59:32.548Z,98948.34
2022-11-18T07:00:34.801Z,98945.59
2022-11-18T07:01:39.513Z,98950.25
2022-11-18T07:02:41.838Z,98947.78
2022-11-18T07:03:46.116Z,98951.56
2022-11-18T07:04:48.504Z,98954.56
2022-11-18T07:05:50.681Z,98955.88
2022-11-18T07:06:52.937Z,98959.94
2022-11-18T07:07:55.361Z,98961.84
2022-11-18T07:09:01.576Z,98965.06
2022-11-18T07:10:04.035Z,98961.78
2022-11-18T07:11:08.313Z,98965.31
2022-11-18T07:12:10.757Z,98974.84
2022-11-18T07:13:13.037Z,98969.03
2022-11-18T07:14:15.345Z,98969.28
2022-11-18T07:15:17.697Z,98969.53
2022-11-18T07:16:24.666Z,98961.84
2022-11-18T07:17:27.217Z,98967.78
2022-11-18T07:18:36.031Z,98974.09
2022-11-18T07:19:39.568Z,98969.72
2022-11-18T07:20:41.825Z,98976.50
2022-11-18T07:21:44.356Z,98981.09
2022-11-18T07:22:46.540Z,98970.44
2022-11-18T07:23:49.209Z,98976.97
2022-11-18T07:24:51.397Z,98968.22
2022-11-18T07:25:55.565Z,98981.00
2022-11-18T07:26:58.249Z,98980.44
2022-11-18T07:28:00.562Z,98976.31
2022-11-18T07:29:03.994Z,98973.56
2022-11-18T07:30:06.803Z,98973.56
2022-11-18T07:31:15.076Z,98972.72
2022-11-18T07:32:17.329Z,98976.78
2022-11-18T07:33:19.587Z,98986.88
2022-11-18T07:34:21.873Z,98980.59
2022-11-18T07:35:24.103Z,98978.34
2022-11-18T07:36:34.025Z,98981.06
2022-11-18T07:37:37.693Z,98984.56
2022-11-18T07:38:40.736Z,98986.69
2022-11-18T07:39:42.926Z,98983.97
2022-11-18T07:40:45.193Z,98983.41
2022-11-18T07:41:47.422Z,98984.47
2022-11-18T07:42:49.616Z,98989.31
2022-11-18T07:44:01.254Z,98989.81
2022-11-18T07:45:04.317Z,98999.91
2022-11-18T07:46:09.594Z,98986.50
2022-11-18T07:47:11.969Z,98993.03
2022-11-18T07:48:14.186Z,98992.47
2022-11-18T07:49:16.600Z,98996.84
2022-11-18T07:50:19.973Z,98993.53
2022-11-18T07:51:27.411Z,98992.47
2022-11-18T07:52:29.600Z,98993.78
2022-11-18T07:53:32.318Z,98989.38
2022-11-18T07:54:34.526Z,98998.41
2022-11-18T07:55:36.795Z,99000.28
2022-11-18T07:56:39.374Z,99002.19
2022-11-18T07:57:41.544Z,98997.22
2022-11-18T07:58:44.625Z,99007.91
2022-11-18T07:59:46.803Z,99005.41
2022-11-18T08:00:49.000Z,99005.91
2022-11-18T08:01:52.778Z,99015.75
2022-11-18T08:02:55.100Z,99006.16
2022-11-18T08:03:58.795Z,99009.94
2022-11-18T08:05:01.100Z,99028.22
2022-11-18T08:06:05.688Z,99008.78
2022-11-18T08:07:10.477Z,99015.03
2022-11-18T08:08:12.741Z,99009.59
2022-11-18T08:09:15.106Z,99004.13
2022-11-18T08:10:17.669Z,99013.97
2022-11-18T08:11:23.102Z,99017.78
2022-11-18T08:12:25.566Z,99012.31
2022-11-18T08:13:28.542Z,99011.25
2022-11-18T08:14:30.766Z,99016.09
2022-11-18T08:15:33.081Z,99010.09
2022-11-18T08:16:35.310Z,99008.41
2022-11-18T08:17:37.543Z,98998.56
2022-11-18T08:18:39.763Z,99001.53
2022-11-18T08:19:42.067Z,99000.69
2022-11-18T08:20:47.474Z,99003.19
2022-11-18T08:21:50.086Z,99008.88
2022-11-18T08:22:52.322Z,99008.28
2022-11-18T08:23:57.202Z,99005.31
2022-11-18T08:24:59.419Z,99012.06
2022-11-18T08:26:05.319Z,98994.31
2022-11-18T08:27:07.589Z,99000.50
2022-11-18T08:28:11.365Z,99008.19
2022-11-18T08:29:13.617Z,99006.19
2022-11-18T08:30:18.463Z,99012.47
2022-11-18T08:31:25.405Z,99007.25
2022-11-18T08:32:28.195Z,99019.22
2022-11-18T08:33:30.478Z,99016.50
2022-11-18T08:34:32.820Z,99023.00
2022-11-18T08:35:35.307Z,99024.94
2022-11-18T08:36:38.308Z,99027.66
2022-11-18T08:37:40.672Z,99026.81
2022-11-18T08:38:42.876Z,99034.16
2022-11-18T08:39:45.093Z,99027.28
2022-11-18T08:40:48.234Z,99035.22
2022-11-18T08:41:53.680Z,99039.63
2022-11-18T08:42:55.922Z,99044.47
2022-11-18T08:43:58.372Z,99044.72
2022-11-18T08:45:00.950Z,99048.28
2022-11-18T08:46:03.165Z,99041.19
2022-11-18T08:47:05.657Z,99053.97
2022-11-18T08:48:08.352Z,99045.78
2022-11-18T08:49:10.562Z,99044.97
2022-11-18T08:50:13.216Z,99046.63
2022-11-18T08:51:16.307Z,99049.59
2022-11-18T08:52:18.634Z,99044.41
2022-11-18T08:53:22.462Z,99047.13
2022-11-18T08:54:24.629Z,99055.31
2022-11-18T08:55:29.094Z,99048.19
2022-11-18T08:56:31.345Z,99051.72
2022-11-18T08:57:33.922Z,99059.34
2022-11-18T08:58:36.124Z,99063.94
2022-11-18T08:59:38.330Z,99051.38
2022-11-18T09:00:40.516Z,99055.41
2022-11-18T09:01:45.221Z,99052.09
2022-11-18T09:02:49.766Z,99052.09
2022-11-18T09:03:52.169Z,99058.38
2022-11-18T09:04:54.458Z,99048.53
2022-11-18T09:06:21.530Z,99051.50
2022-11-18T09:07:23.878Z,99041.91
2022-11-18T09:08:26.865Z,99049.50
2022-11-18T09:09:31.356Z,99045.13
2022-11-18T09:10:34.595Z,99048.66
2022-11-18T09:11:39.784Z,99046.41
2022-11-18T09:12:41.969Z,99047.47
2022-11-18T09:14:58.353Z,99061.09
2022-11-18T09:15:13.980Z,99059.19
2022-11-18T09:16:16.948Z,99064.06
2022-11-18T09:17:19.159Z,99061.59
2022-11-18T09:18:21.750Z,99065.38
2022-11-18T09:21:00.911Z,99074.63
2022-11-18T09:22:07.323Z,99072.13
2022-11-18T09:23:09.519Z,99075.34
2022-11-18T09:24:11.905Z,99084.56
2022-11-18T09:25:14.214Z,99074.97
2022-11-18T09:26:20.968Z,99083.59
2022-11-18T09:27:23.163Z,99084.69
2022-11-18T09:28:25.499Z,99092.50
2022-11-18T09:29:27.774Z,99092.75
2022-11-18T09:30:30.015Z,99088.59
2022-11-18T09:31:32.255Z,99090.13
2022-11-18T09:32:34.547Z,99093.69
2022-11-18T09:33:37.947Z,99092.00
2022-11-18T09:34:40.162Z,99089.53
2022-11-18T09:35:44.752Z,99097.69
2022-11-18T09:36:46.941Z,99093.31
2022-11-18T09:37:49.163Z,99095.22
2022-11-18T09:38:53.588Z,99098.75
2022-11-18T09:39:55.882Z,99099.00
2022-11-18T09:41:10.136Z,99096.28
2022-11-18T09:42:32.256Z,99095.47
2022-11-18T09:44:00.592Z,99107.41
2022-11-18T09:45:24.570Z,99103.03
2022-11-18T09:47:00.048Z,99102.66
2022-11-18T09:48:18.276Z,99116.28
2022-11-18T09:49:39.317Z,99114.03
2022-11-18T09:50:49.761Z,99110.69
2022-11-18T09:51:54.270Z,99109.25
2022-11-18T09:53:07.545Z,99108.69
2022-11-18T09:54:13.384Z,99121.69
2022-11-18T09:55:19.107Z,99121.94
2022-11-18T09:56:22.982Z,99121.31
2022-11-18T09:57:38.033Z,99124.28
2022-11-18T09:58:40.514Z,99119.88
2022-11-18T09:59:43.760Z,99118.47
2022-11-18T10:00:46.821Z,99124.16
2022-11-18T10:01:51.794Z,99129.00
2022-11-18T10:03:03.067Z,99132.78
2022-11-18T10:04:05.346Z,99132.41
2022-11-18T10:05:21.104Z,99140.81
2022-11-18T10:06:34.377Z,99141.88
2022-11-18T10:07:46.029Z,99139.63
2022-11-18T10:09:09.884Z,99147.19
2022-11-18T10:10:19.661Z,99139.50
2022-11-18T10:11:25.488Z,99153.53
2022-11-18T10:12:40.055Z,99151.53
2022-11-18T10:14:14.707Z,99157.78
2022-11-18T10:15:43.891Z,99149.03
2022-11-18T10:16:57.946Z,99153.28
2022-11-18T10:18:03.148Z,99161.66
2022-11-18T10:19:26.707Z,99160.00
2022-11-18T10:20:46.943Z,99159.88
2022-11-18T10:21:55.357Z,99155.25
2022-11-18T10:23:09.403Z,99148.59
2022-11-18T10:24:26.252Z,99152.38
2022-11-18T10:25:28.474Z,99151.75
2022-11-18T10:26:40.117Z,99158.50
2022-11-18T10:27:47.988Z,99158.72
2022-11-18T10:28:50.263Z,99164.41
2022-11-18T10:29:56.075Z,99155.63
2022-11-18T10:31:10.720Z,99165.69
2022-11-18T10:32:20.761Z,99161.53
2022-11-18T10:33:22.922Z,99163.66
2022-11-18T10:34:25.129Z,99156.56
2022-11-18T10:35:30.071Z,99157.84
2022-11-18T10:36:34.431Z,99155.13
2022-11-18T10:38:07.352Z,99148.25
2022-11-18T10:39:15.418Z,99158.91
2022-11-18T10:40:28.787Z,99152.84
2022-11-18T10:41:39.875Z,99155.56
2022-11-18T10:42:43.452Z,99175.69
2022-11-18T10:43:45.669Z,99176.28
2022-11-18T10:44:50.192Z,99172.72
2022-11-18T10:45:52.676Z,99175.88
2022-11-18T10:46:54.966Z,99175.88
2022-11-18T10:48:01.444Z,99184.28
2022-11-18T10:49:09.594Z,99188.03
2022-11-18T10:50:41.893Z,99188.50
2022-11-18T10:51:47.561Z,99185.78
2022-11-18T10:52:53.841Z,99197.47
2022-11-18T10:54:13.089Z,99198.75
2022-11-18T10:55:26.151Z,99202.34
2022-11-18T10:56:31.111Z,99203.63
2022-11-18T10:57:37.379Z,99204.66
2022-11-18T10:58:46.711Z,99196.75
2022-11-18T10:59:51.927Z,99199.69
2022-11-18T11:01:08.521Z,99202.19
2022-11-18T11:02:23.985Z,99200.50
2022-11-18T11:03:32.550Z,99199.69
2022-11-18T11:04:37.271Z,99210.78
2022-11-18T11:05:39.471Z,99203.69
2022-11-18T11:06:41.671Z,99216.44
2022-11-18T11:07:43.925Z,99213.94
2022-11-18T11:08:51.621Z,99215.84
2022-11-18T11:10:05.957Z,99217.72
2022-11-18T11:11:26.165Z,99214.19
2022-11-18T11:12:51.260Z,99217.94
2022-11-18T11:14:09.830Z,99222.34
2022-11-18T11:15:18.319Z,99219.84
2022-11-18T11:16:26.131Z,99220.88
2022-11-18T11:17:40.796Z,99229.03
2022-11-18T11:18:55.716Z,99228.22
2022-11-18T11:20:18.393Z,99224.66
2022-11-18T11:21:23.033Z,99232.00
2022-11-18T11:22:25.326Z,99234.94
2022-11-18T11:23:28.876Z,99231.38
2022-11-18T11:24:31.152Z,99234.94
2022-11-18T11:29:30.116Z,99238.72
2022-11-18T11:30:45.315Z,99245.19
2022-11-18T11:32:13.788Z,99245.19
2022-11-18T11:33:32.976Z,99243.75
2022-11-18T11:34:41.266Z,99242.94
2022-11-18T11:36:21.003Z,99238.31
2022-11-18T11:37:33.963Z,99241.28
2022-11-18T11:39:04.225Z,99244.81
2022-11-18T11:40:48.508Z,99243.97
2022-11-18T11:42:09.013Z,99241.50
2022-11-18T11:43:36.258Z,99243.16
2022-11-18T11:45:05.216Z,99251.31
2022-11-18T11:46:32.125Z,99240.88
2022-11-18T11:47:49.496Z,99242.53
2022-11-18T11:49:03.834Z,99244.63
2022-11-18T11:51:03.059Z,99252.78
2022-11-18T11:52:40.796Z,99256.59
2022-11-18T11:54:05.963Z,99252.44
2022-11-18T11:55:17.728Z,99258.91
2022-11-18T11:56:41.152Z,99255.81
2022-11-18T11:57:55.164Z,99254.97
2022-11-18T11:59:16.322Z,99256.25
2022-11-18T12:00:21.060Z,99256.03
2022-11-18T12:02:00.957Z,99250.81
2022-11-18T12:03:18.123Z,99262.72
2022-11-18T12:04:47.840Z,99254.59
2022-11-18T12:05:50.968Z,99249.38
2022-11-18T12:06:55.124Z,99262.97
2022-11-18T12:08:00.574Z,99266.72
2022-11-18T12:09:13.125Z,99264.22
2022-11-18T12:10:37.938Z,99274.03
2022-11-18T12:12:32.269Z,99273.44
2022-11-18T12:14:12.068Z,99265.28
2022-11-18T12:15:26.721Z,99265.06
2022-11-18T12:16:56.375Z,99266.09
2022-11-18T12:18:16.289Z,99273.22
2022-11-18T12:19:21.850Z,99272.38
2022-11-18T12:20:37.553Z,99272.38
2022-11-18T12:21:44.197Z,99269.03
2022-11-18T12:23:12.076Z,99277.19
2022-11-18T12:24:24.707Z,99278.25
2022-11-18T12:25:48.682Z,99283.69
2022-11-18T12:26:51.809Z,99282.03
2022-11-18T12:27:59.736Z,99289.34
2022-11-18T12:29:24.018Z,99281.41
2022-11-18T12:30:26.394Z,99290.38
2022-11-18T12:31:33.526Z,99284.75
2022-11-18T12:32:45.530Z,99287.66
2022-11-18T12:34:01.997Z,99286.84
2022-11-18T12:35:19.361Z,99293.94
2022-11-18T12:36:27.335Z,99291.47
2022-11-18T12:37:29.575Z,99291.47
2022-11-18T12:38:32.494Z,99294.19
2022-11-18T12:40:00.918Z,99290.63
2022-11-18T12:41:23.379Z,99296.03
2022-11-18T12:43:03.879Z,99298.75
2022-11-18T12:44:07.178Z,99297.09
2022-11-18T12:45:47.120Z,99302.53
2022-11-18T12:46:50.852Z,99296.09
2022-11-18T12:47:53.044Z,99296.31
2022-11-18T12:48:55.301Z,99303.44
2022-11-18T12:50:00.301Z,99309.06
2022-11-18T12:51:30.159Z,99301.13
2022-11-18T12:52:33.225Z,99309.72
2022-11-18T12:53:47.270Z,99299.91
2022-11-18T12:54:50.129Z,99312.88
2022-11-18T12:55:52.444Z,99308.28
2022-11-18T12:56:58.157Z,99306.84
2022-11-18T12:58:00.415Z,99306.19
2022-11-18T12:59:02.980Z,99312.72
2022-11-18T13:00:18.134Z,99312.91
2022-11-18T13:01:25.922Z,99314.81
2022-11-18T13:02:30.408Z,99313.13
2022-11-18T13:03:32.736Z,99313.34
2022-11-18T13:04:41.417Z,99315.25
2022-11-18T13:05:47.016Z,99319.00
2022-11-18T13:06:53.127Z,99316.94
2022-11-18T13:08:13.324Z,99318.59
2022-11-18T13:09:20.649Z,99319.03
2022-11-18T13:10:27.769Z,99326.13
2022-11-18T13:11:45.217Z,99321.13
2022-11-18T13:12:49.175Z,99324.88
2022-11-18T13:14:15.583Z,99320.31
2022-11-18T13:15:38.045Z,99330.53
2022-11-18T13:17:00.014Z,99327.22
2022-11-18T13:18:15.685Z,99321.81
2022-11-18T13:19:25.338Z,99325.56
2022-11-18T13:20:33.619Z,99325.56
2022-11-18T13:21:54.766Z,99327.41